sensor_id;sensor_type;location;lat;lon;timestamp;pressure;altitude;pressure_sealevel;temperature;humidity
5146;BME280;2591;48.144;15.152;2022-08-19T00:01:55;74478.16;;;-144.65;100.00
5146;BME280;2591;48.144;15.152;2022-08-19T00:04:27;74482.22;;;-144.65;100.00
5146;BME280;2591;48.144;15.152;2022-08-19T00:06:56;74482.22;;;-144.65;100.00
5146;BME280;2591;48.144;15.152;2022-08-19T00:09:25;74482.22;;;-144.65;100.00
5146;BME280;2591;48.144;15.152;2022-08-19T00:11:54;74480.19;;;-144.65;100.00
5146;BME280;2591;48.144;15.152;2022-08-19T00:14:24;74484.25;;;-144.65;100.00
5146;BME280;2591;48.144;15.152;2022-08-19T00:16:54;74504.63;;;-144.65;100.00
5146;BME280;2591;48.144;15.152;2022-08-19T00:19:23;74504.63;;;-144.65;100.00
5146;BME280;2591;48.144;15.152;2022-08-19T00:21:51;74500.56;;;-144.65;100.00
5146;BME280;2591;48.144;15.152;2022-08-19T00:24:20;74514.84;;;-144.65;100.00
5146;BME280;2591;48.144;15.152;2022-08-19T00:26:48;74516.88;;;-144.65;100.00
5146;BME280;2591;48.144;15.152;2022-08-19T00:29:18;74541.31;;;-144.65;100.00
5146;BME280;2591;48.144;15.152;2022-08-19T00:31:48;74545.41;;;-144.65;100.00
5146;BME280;2591;48.144;15.152;2022-08-19T00:34:18;74549.47;;;-144.65;100.00
5146;BME280;2591;48.144;15.152;2022-08-19T00:36:46;74533.16;;;-144.65;100.00
5146;BME280;2591;48.144;15.152;2022-08-19T00:39:15;74541.31;;;-144.65;100.00
5146;BME280;2591;48.144;15.152;2022-08-19T00:41:44;74533.16;;;-144.65;100.00
5146;BME280;2591;48.144;15.152;2022-08-19T00:44:16;74545.41;;;-144.65;100.00
5146;BME280;2591;48.144;15.152;2022-08-19T00:46:49;74549.47;;;-144.65;100.00
5146;BME280;2591;48.144;15.152;2022-08-19T00:49:29;74545.41;;;-144.65;100.00
5146;BME280;2591;48.144;15.152;2022-08-19T00:52:02;74549.47;;;-144.65;100.00
5146;BME280;2591;48.144;15.152;2022-08-19T00:54:32;74555.59;;;-144.65;100.00
5146;BME280;2591;48.144;15.152;2022-08-19T00:57:02;74561.69;;;-144.65;100.00
5146;BME280;2591;48.144;15.152;2022-08-19T00:59:34;74567.81;;;-144.65;100.00
5146;BME280;2591;48.144;15.152;2022-08-19T01:02:23;74573.94;;;-144.65;100.00
5146;BME280;2591;48.144;15.152;2022-08-19T01:04:53;74569.84;;;-144.65;100.00
5146;BME280;2591;48.144;15.152;2022-08-19T01:07:22;74578.00;;;-144.65;100.00
5146;BME280;2591;48.144;15.152;2022-08-19T01:09:50;74580.03;;;-144.65;100.00
5146;BME280;2591;48.144;15.152;2022-08-19T01:12:18;74578.00;;;-144.65;100.00
5146;BME280;2591;48.144;15.152;2022-08-19T01:14:46;74567.81;;;-144.65;100.00
5146;BME280;2591;48.144;15.152;2022-08-19T01:17:16;74565.78;;;-144.65;100.00
5146;BME280;2591;48.144;15.152;2022-08-19T01:19:45;74582.09;;;-144.65;100.00
5146;BME280;2591;48.144;15.152;2022-08-19T01:24:57;74584.13;;;-144.65;100.00
5146;BME280;2591;48.144;15.152;2022-08-19T01:27:25;74578.00;;;-144.65;100.00
5146;BME280;2591;48.144;15.152;2022-08-19T01:30:10;74569.84;;;-144.65;100.00
5146;BME280;2591;48.144;15.152;2022-08-19T01:32:39;74582.09;;;-144.65;100.00
5146;BME280;2591;48.144;15.152;2022-08-19T01:35:08;74582.09;;;-144.65;100.00
5146;BME280;2591;48.144;15.152;2022-08-19T01:37:44;74567.81;;;-144.65;100.00
5146;BME280;2591;48.144;15.152;2022-08-19T01:40:15;74573.94;;;-144.65;100.00
5146;BME280;2591;48.144;15.152;2022-08-19T01:42:43;74586.16;;;-144.65;100.00
5146;BME280;2591;48.144;15.152;2022-08-19T01:45:11;74594.31;;;-144.65;100.00
5146;BME280;2591;48.144;15.152;2022-08-19T01:47:40;74594.31;;;-144.65;100.00
5146;BME280;2591;48.144;15.152;2022-08-19T01:50:17;74582.09;;;-144.65;100.00
5146;BME280;2591;48.144;15.152;2022-08-19T01:52:47;74578.00;;;-144.65;100.00
5146;BME280;2591;48.144;15.152;2022-08-19T01:55:30;74588.19;;;-144.65;100.00
5146;BME280;2591;48.144;15.152;2022-08-19T01:58:02;74590.22;;;-144.65;100.00
5146;BME280;2591;48.144;15.152;2022-08-19T02:00:32;74580.03;;;-144.65;100.00
5146;BME280;2591;48.144;15.152;2022-08-19T02:03:00;74580.03;;;-144.65;100.00
5146;BME280;2591;48.144;15.152;2022-08-19T02:05:28;74586.16;;;-144.65;100.00
5146;BME280;2591;48.144;15.152;2022-08-19T02:07:57;74580.03;;;-144.65;100.00
5146;BME280;2591;48.144;15.152;2022-08-19T02:10:25;74563.75;;;-144.65;100.00
5146;BME280;2591;48.144;15.152;2022-08-19T02:12:55;74541.31;;;-144.65;100.00
5146;BME280;2591;48.144;15.152;2022-08-19T02:15:23;74547.44;;;-144.65;100.00
5146;BME280;2591;48.144;15.152;2022-08-19T02:17:52;74549.47;;;-144.65;100.00
5146;BME280;2591;48.144;15.152;2022-08-19T02:20:20;74549.47;;;-144.65;100.00
5146;BME280;2591;48.144;15.152;2022-08-19T02:22:49;74557.63;;;-144.65;100.00
5146;BME280;2591;48.144;15.152;2022-08-19T02:25:17;74549.47;;;-144.65;100.00
5146;BME280;2591;48.144;15.152;2022-08-19T02:27:45;74541.31;;;-144.65;100.00
5146;BME280;2591;48.144;15.152;2022-08-19T02:30:17;74535.22;;;-144.65;100.00
5146;BME280;2591;48.144;15.152;2022-08-19T02:32:46;74539.28;;;-144.65;100.00
5146;BME280;2591;48.144;15.152;2022-08-19T02:35:14;74539.28;;;-144.65;100.00
5146;BME280;2591;48.144;15.152;2022-08-19T02:37:43;74537.25;;;-144.65;100.00
5146;BME280;2591;48.144;15.152;2022-08-19T02:40:29;74533.16;;;-144.65;100.00
5146;BME280;2591;48.144;15.152;2022-08-19T02:43:02;74537.25;;;-144.65;100.00
5146;BME280;2591;48.144;15.152;2022-08-19T02:45:33;74547.44;;;-144.65;100.00
5146;BME280;2591;48.144;15.152;2022-08-19T02:48:02;74537.25;;;-144.65;100.00
5146;BME280;2591;48.144;15.152;2022-08-19T02:50:47;74539.28;;;-144.65;100.00
5146;BME280;2591;48.144;15.152;2022-08-19T02:53:19;74537.25;;;-144.65;100.00
5146;BME280;2591;48.144;15.152;2022-08-19T02:55:50;74537.25;;;-144.65;100.00
5146;BME280;2591;48.144;15.152;2022-08-19T02:58:19;74541.31;;;-144.65;100.00
5146;BME280;2591;48.144;15.152;2022-08-19T03:00:51;74545.41;;;-144.65;100.00
5146;BME280;2591;48.144;15.152;2022-08-19T03:03:20;74541.31;;;-144.65;100.00
5146;BME280;2591;48.144;15.152;2022-08-19T03:05:48;74541.31;;;-144.65;100.00
5146;BME280;2591;48.144;15.152;2022-08-19T03:08:22;74537.25;;;-144.65;100.00
5146;BME280;2591;48.144;15.152;2022-08-19T03:10:52;74529.09;;;-144.65;100.00
5146;BME280;2591;48.144;15.152;2022-08-19T03:13:21;74529.09;;;-144.65;100.00
5146;BME280;2591;48.144;15.152;2022-08-19T03:15:51;74533.16;;;-144.65;100.00
5146;BME280;2591;48.144;15.152;2022-08-19T03:18:19;74541.31;;;-144.65;100.00
5146;BME280;2591;48.144;15.152;2022-08-19T03:20:51;74543.34;;;-144.65;100.00
5146;BME280;2591;48.144;15.152;2022-08-19T03:23:22;74541.31;;;-144.65;100.00
5146;BME280;2591;48.144;15.152;2022-08-19T03:25:52;74549.47;;;-144.65;100.00
5146;BME280;2591;48.144;15.152;2022-08-19T03:28:41;74551.50;;;-144.65;100.00
5146;BME280;2591;48.144;15.152;2022-08-19T03:31:21;74557.63;;;-144.65;100.00
5146;BME280;2591;48.144;15.152;2022-08-19T03:34:10;74573.94;;;-144.65;100.00
5146;BME280;2591;48.144;15.152;2022-08-19T03:36:39;74573.94;;;-144.65;100.00
5146;BME280;2591;48.144;15.152;2022-08-19T03:39:07;74561.69;;;-144.65;100.00
5146;BME280;2591;48.144;15.152;2022-08-19T03:41:38;74549.47;;;-144.65;100.00
5146;BME280;2591;48.144;15.152;2022-08-19T03:44:12;74537.25;;;-144.65;100.00
5146;BME280;2591;48.144;15.152;2022-08-19T03:46:46;74535.22;;;-144.65;100.00
5146;BME280;2591;48.144;15.152;2022-08-19T03:49:15;74533.16;;;-144.65;100.00
5146;BME280;2591;48.144;15.152;2022-08-19T03:51:44;74533.16;;;-144.65;100.00
5146;BME280;2591;48.144;15.152;2022-08-19T03:54:14;74533.16;;;-144.65;100.00
5146;BME280;2591;48.144;15.152;2022-08-19T03:56:43;74529.09;;;-144.65;100.00
5146;BME280;2591;48.144;15.152;2022-08-19T03:59:13;74541.31;;;-144.65;100.00
5146;BME280;2591;48.144;15.152;2022-08-19T04:01:42;74549.47;;;-144.65;100.00
5146;BME280;2591;48.144;15.152;2022-08-19T04:04:11;74543.34;;;-144.65;100.00
5146;BME280;2591;48.144;15.152;2022-08-19T04:06:40;74553.56;;;-144.65;100.00
5146;BME280;2591;48.144;15.152;2022-08-19T04:09:10;74553.56;;;-144.65;100.00
5146;BME280;2591;48.144;15.152;2022-08-19T04:11:40;74561.69;;;-144.65;100.00
5146;BME280;2591;48.144;15.152;2022-08-19T04:14:12;74569.84;;;-144.65;100.00
5146;BME280;2591;48.144;15.152;2022-08-19T04:16:41;74567.81;;;-144.65;100.00
5146;BME280;2591;48.144;15.152;2022-08-19T04:19:13;74569.84;;;-144.65;100.00
5146;BME280;2591;48.144;15.152;2022-08-19T04:21:43;74569.84;;;-144.65;100.00
5146;BME280;2591;48.144;15.152;2022-08-19T04:24:13;74573.94;;;-144.65;100.00
5146;BME280;2591;48.144;15.152;2022-08-19T04:26:41;74569.84;;;-144.65;100.00
5146;BME280;2591;48.144;15.152;2022-08-19T04:29:11;74573.94;;;-144.65;100.00
5146;BME280;2591;48.144;15.152;2022-08-19T04:31:41;74573.94;;;-144.65;100.00
5146;BME280;2591;48.144;15.152;2022-08-19T04:34:15;74575.97;;;-144.65;100.00
5146;BME280;2591;48.144;15.152;2022-08-19T04:36:44;74571.91;;;-144.65;100.00
5146;BME280;2591;48.144;15.152;2022-08-19T04:39:15;74578.00;;;-144.65;100.00
5146;BME280;2591;48.144;15.152;2022-08-19T04:41:43;74580.03;;;-144.65;100.00
5146;BME280;2591;48.144;15.152;2022-08-19T04:44:30;74586.16;;;-144.65;100.00
5146;BME280;2591;48.144;15.152;2022-08-19T04:47:02;74610.63;;;-144.65;100.00
5146;BME280;2591;48.144;15.152;2022-08-19T04:49:38;74622.84;;;-144.65;100.00
5146;BME280;2591;48.144;15.152;2022-08-19T04:52:06;74628.94;;;-144.65;100.00
5146;BME280;2591;48.144;15.152;2022-08-19T04:54:35;74657.47;;;-144.65;100.00
5146;BME280;2591;48.144;15.152;2022-08-19T04:57:07;74675.81;;;-144.65;100.00
5146;BME280;2591;48.144;15.152;2022-08-19T04:59:37;74694.16;;;-144.65;100.00
5146;BME280;2591;48.144;15.152;2022-08-19T05:02:07;74702.31;;;-144.65;100.00
5146;BME280;2591;48.144;15.152;2022-08-19T05:04:36;74712.50;;;-144.65;100.00
5146;BME280;2591;48.144;15.152;2022-08-19T05:07:08;74643.22;;;-144.65;100.00
5146;BME280;2591;48.144;15.152;2022-08-19T05:09:36;74590.22;;;-144.65;100.00
5146;BME280;2591;48.144;15.152;2022-08-19T05:12:24;74569.84;;;-144.65;100.00
5146;BME280;2591;48.144;15.152;2022-08-19T05:14:55;74567.81;;;-144.65;100.00
5146;BME280;2591;48.144;15.152;2022-08-19T05:17:24;74561.69;;;-144.65;100.00
5146;BME280;2591;48.144;15.152;2022-08-19T05:19:56;74584.13;;;-144.65;100.00
5146;BME280;2591;48.144;15.152;2022-08-19T05:22:43;74563.75;;;-144.65;100.00
5146;BME280;2591;48.144;15.152;2022-08-19T05:25:17;74575.97;;;-144.65;100.00
5146;BME280;2591;48.144;15.152;2022-08-19T05:27:47;74573.94;;;-144.65;100.00
5146;BME280;2591;48.144;15.152;2022-08-19T05:30:16;74573.94;;;-144.65;100.00
5146;BME280;2591;48.144;15.152;2022-08-19T05:33:04;74578.00;;;-144.65;100.00
5146;BME280;2591;48.144;15.152;2022-08-19T05:35:33;74575.97;;;-144.65;100.00
5146;BME280;2591;48.144;15.152;2022-08-19T05:38:03;74575.97;;;-144.65;100.00
5146;BME280;2591;48.144;15.152;2022-08-19T05:40:31;74561.69;;;-144.65;100.00
5146;BME280;2591;48.144;15.152;2022-08-19T05:43:01;74557.63;;;-144.65;100.00
5146;BME280;2591;48.144;15.152;2022-08-19T05:45:29;74557.63;;;-144.65;100.00
5146;BME280;2591;48.144;15.152;2022-08-19T05:47:57;74549.47;;;-144.65;100.00
5146;BME280;2591;48.144;15.152;2022-08-19T05:50:25;74537.25;;;-144.65;100.00
5146;BME280;2591;48.144;15.152;2022-08-19T05:52:53;74527.06;;;-144.65;100.00
5146;BME280;2591;48.144;15.152;2022-08-19T05:55:23;74518.91;;;-144.65;100.00
5146;BME280;2591;48.144;15.152;2022-08-19T05:57:51;74520.94;;;-144.65;100.00
5146;BME280;2591;48.144;15.152;2022-08-19T06:00:19;74514.84;;;-144.65;100.00
5146;BME280;2591;48.144;15.152;2022-08-19T06:02:50;74504.63;;;-144.65;100.00
5146;BME280;2591;48.144;15.152;2022-08-19T06:05:19;74500.56;;;-144.65;100.00
5146;BME280;2591;48.144;15.152;2022-08-19T06:07:47;74484.25;;;-144.65;100.00
5146;BME280;2591;48.144;15.152;2022-08-19T06:10:15;74480.19;;;-144.65;100.00
5146;BME280;2591;48.144;15.152;2022-08-19T06:12:45;74472.03;;;-144.65;100.00
5146;BME280;2591;48.144;15.152;2022-08-19T06:15:13;74457.78;;;-144.65;100.00
5146;BME280;2591;48.144;15.152;2022-08-19T06:17:42;74451.66;;;-144.65;100.00
5146;BME280;2591;48.144;15.152;2022-08-19T06:20:13;74445.53;;;-144.65;100.00
5146;BME280;2591;48.144;15.152;2022-08-19T06:22:46;74443.50;;;-144.65;100.00
5146;BME280;2591;48.144;15.152;2022-08-19T06:25:15;74439.44;;;-144.65;100.00
5146;BME280;2591;48.144;15.152;2022-08-19T06:27:46;74437.41;;;-144.65;100.00
5146;BME280;2591;48.144;15.152;2022-08-19T06:30:35;74437.41;;;-144.65;100.00
5146;BME280;2591;48.144;15.152;2022-08-19T06:33:03;74414.97;;;-144.65;100.00
5146;BME280;2591;48.144;15.152;2022-08-19T06:35:31;74400.72;;;-144.65;100.00
5146;BME280;2591;48.144;15.152;2022-08-19T06:37:59;74392.56;;;-144.65;100.00
5146;BME280;2591;48.144;15.152;2022-08-19T06:40:27;74390.53;;;-144.65;100.00
5146;BME280;2591;48.144;15.152;2022-08-19T06:42:57;74386.44;;;-144.65;100.00
5146;BME280;2591;48.144;15.152;2022-08-19T06:45:29;74386.44;;;-144.65;100.00
5146;BME280;2591;48.144;15.152;2022-08-19T06:48:01;74378.28;;;-144.65;100.00
5146;BME280;2591;48.144;15.152;2022-08-19T06:50:30;74380.34;;;-144.65;100.00
5146;BME280;2591;48.144;15.152;2022-08-19T06:52:58;74374.22;;;-144.65;100.00
5146;BME280;2591;48.144;15.152;2022-08-19T06:55:30;74374.22;;;-144.65;100.00
5146;BME280;2591;48.144;15.152;2022-08-19T06:58:03;74366.06;;;-144.65;100.00
5146;BME280;2591;48.144;15.152;2022-08-19T07:00:31;74355.88;;;-144.65;100.00
5146;BME280;2591;48.144;15.152;2022-08-19T07:02:59;74345.69;;;-144.65;100.00
5146;BME280;2591;48.144;15.152;2022-08-19T07:05:38;74347.72;;;-144.65;100.00
5146;BME280;2591;48.144;15.152;2022-08-19T07:08:11;74333.47;;;-144.65;100.00
5146;BME280;2591;48.144;15.152;2022-08-19T07:10:43;74317.16;;;-144.65;100.00
5146;BME280;2591;48.144;15.152;2022-08-19T07:13:13;74311.06;;;-144.65;100.00
5146;BME280;2591;48.144;15.152;2022-08-19T07:15:42;74290.69;;;-144.65;100.00
5146;BME280;2591;48.144;15.152;2022-08-19T07:18:10;74262.16;;;-144.65;100.00
5146;BME280;2591;48.144;15.152;2022-08-19T07:20:38;74251.97;;;-144.65;100.00
5146;BME280;2591;48.144;15.152;2022-08-19T07:23:08;74237.69;;;-144.65;100.00
5146;BME280;2591;48.144;15.152;2022-08-19T07:25:42;74223.44;;;-144.65;100.00
5146;BME280;2591;48.144;15.152;2022-08-19T07:28:20;74207.13;;;-144.65;100.00
5146;BME280;2591;48.144;15.152;2022-08-19T07:30:50;74219.34;;;-144.65;100.00
5146;BME280;2591;48.144;15.152;2022-08-19T07:33:19;74211.22;;;-144.65;100.00
5146;BME280;2591;48.144;15.152;2022-08-19T07:35:47;74184.72;;;-144.65;100.00
5146;BME280;2591;48.144;15.152;2022-08-19T07:38:16;74168.41;;;-144.65;100.00
5146;BME280;2591;48.144;15.152;2022-08-19T07:40:44;74164.34;;;-144.65;100.00
5146;BME280;2591;48.144;15.152;2022-08-19T07:43:13;74158.22;;;-144.65;100.00
5146;BME280;2591;48.144;15.152;2022-08-19T07:45:45;74178.59;;;-144.65;100.00
5146;BME280;2591;48.144;15.152;2022-08-19T07:48:14;74186.75;;;-144.65;100.00
5146;BME280;2591;48.144;15.152;2022-08-19T07:50:42;74194.91;;;-144.65;100.00
5146;BME280;2591;48.144;15.152;2022-08-19T07:53:10;74192.88;;;-144.65;100.00
5146;BME280;2591;48.144;15.152;2022-08-19T07:55:39;74170.44;;;-144.65;100.00
5146;BME280;2591;48.144;15.152;2022-08-19T07:58:10;74170.44;;;-144.65;100.00
5146;BME280;2591;48.144;15.152;2022-08-19T08:00:40;74168.41;;;-144.65;100.00
5146;BME280;2591;48.144;15.152;2022-08-19T08:03:10;74170.44;;;-144.65;100.00
5146;BME280;2591;48.144;15.152;2022-08-19T08:05:38;74170.44;;;-144.65;100.00
5146;BME280;2591;48.144;15.152;2022-08-19T08:08:25;74141.94;;;-144.65;100.00
5146;BME280;2591;48.144;15.152;2022-08-19T08:11:15;74113.41;;;-144.65;100.00
5146;BME280;2591;48.144;15.152;2022-08-19T08:13:47;74105.25;;;-144.65;100.00
5146;BME280;2591;48.144;15.152;2022-08-19T08:16:32;74088.94;;;-144.65;100.00
5146;BME280;2591;48.144;15.152;2022-08-19T08:19:14;74097.09;;;-144.65;100.00
5146;BME280;2591;48.144;15.152;2022-08-19T08:21:53;74088.94;;;-144.65;100.00
5146;BME280;2591;48.144;15.152;2022-08-19T08:24:22;74080.78;;;-144.65;100.00
5146;BME280;2591;48.144;15.152;2022-08-19T08:26:55;74093.03;;;-144.65;100.00
5146;BME280;2591;48.144;15.152;2022-08-19T08:29:24;74088.94;;;-144.65;100.00
5146;BME280;2591;48.144;15.152;2022-08-19T08:32:01;74076.72;;;-144.65;100.00
5146;BME280;2591;48.144;15.152;2022-08-19T08:34:41;74088.94;;;-144.65;100.00
5146;BME280;2591;48.144;15.152;2022-08-19T08:37:09;74088.94;;;-144.65;100.00
5146;BME280;2591;48.144;15.152;2022-08-19T08:39:37;74093.03;;;-144.65;100.00
5146;BME280;2591;48.144;15.152;2022-08-19T08:42:08;74088.94;;;-144.65;100.00
5146;BME280;2591;48.144;15.152;2022-08-19T08:44:48;74076.72;;;-144.65;100.00
5146;BME280;2591;48.144;15.152;2022-08-19T08:47:30;74068.56;;;-144.65;100.00
5146;BME280;2591;48.144;15.152;2022-08-19T08:50:05;74066.53;;;-144.65;100.00
5146;BME280;2591;48.144;15.152;2022-08-19T08:52:37;74062.47;;;-144.65;100.00
5146;BME280;2591;48.144;15.152;2022-08-19T08:55:11;74060.41;;;-144.65;100.00
5146;BME280;2591;48.144;15.152;2022-08-19T08:57:48;74070.59;;;-144.65;100.00
5146;BME280;2591;48.144;15.152;2022-08-19T09:00:24;74064.50;;;-144.65;100.00
5146;BME280;2591;48.144;15.152;2022-08-19T09:02:55;74058.38;;;-144.65;100.00
5146;BME280;2591;48.144;15.152;2022-08-19T09:05:40;74068.56;;;-144.65;100.00
5146;BME280;2591;48.144;15.152;2022-08-19T09:08:22;74084.88;;;-144.65;100.00
5146;BME280;2591;48.144;15.152;2022-08-19T09:10:55;74088.94;;;-144.65;100.00
5146;BME280;2591;48.144;15.152;2022-08-19T09:13:31;74093.03;;;-144.65;100.00
5146;BME280;2591;48.144;15.152;2022-08-19T09:16:07;74109.31;;;-144.65;100.00
5146;BME280;2591;48.144;15.152;2022-08-19T09:18:42;74107.28;;;-144.65;100.00
5146;BME280;2591;48.144;15.152;2022-08-19T09:21:11;74093.03;;;-144.65;100.00
5146;BME280;2591;48.144;15.152;2022-08-19T09:23:40;74086.91;;;-144.65;100.00
5146;BME280;2591;48.144;15.152;2022-08-19T09:26:10;74072.66;;;-144.65;100.00
5146;BME280;2591;48.144;15.152;2022-08-19T09:28:44;74052.28;;;-144.65;100.00
5146;BME280;2591;48.144;15.152;2022-08-19T09:31:18;74035.97;;;-144.65;100.00
5146;BME280;2591;48.144;15.152;2022-08-19T09:33:48;74031.91;;;-144.65;100.00
5146;BME280;2591;48.144;15.152;2022-08-19T09:36:21;74027.81;;;-144.65;100.00
5146;BME280;2591;48.144;15.152;2022-08-19T09:39:02;74027.81;;;-144.65;100.00
5146;BME280;2591;48.144;15.152;2022-08-19T09:41:42;74019.66;;;-144.65;100.00
5146;BME280;2591;48.144;15.152;2022-08-19T09:44:16;74009.47;;;-144.65;100.00
5146;BME280;2591;48.144;15.152;2022-08-19T09:46:48;74007.44;;;-144.65;100.00
5146;BME280;2591;48.144;15.152;2022-08-19T09:49:42;73991.16;;;-144.65;100.00
5146;BME280;2591;48.144;15.152;2022-08-19T09:52:11;73995.22;;;-144.65;100.00
5146;BME280;2591;48.144;15.152;2022-08-19T09:54:41;74007.44;;;-144.65;100.00
5146;BME280;2591;48.144;15.152;2022-08-19T09:57:09;74007.44;;;-144.65;100.00
5146;BME280;2591;48.144;15.152;2022-08-19T09:59:38;73987.06;;;-144.65;100.00
5146;BME280;2591;48.144;15.152;2022-08-19T10:02:07;73958.53;;;-144.65;100.00
5146;BME280;2591;48.144;15.152;2022-08-19T10:04:36;73934.09;;;-144.65;100.00
5146;BME280;2591;48.144;15.152;2022-08-19T10:07:24;73881.13;;;-144.65;100.00
5146;BME280;2591;48.144;15.152;2022-08-19T10:10:03;73828.16;;;-144.65;100.00
5146;BME280;2591;48.144;15.152;2022-08-19T10:12:33;73811.84;;;-144.65;97.66
5146;BME280;2591;48.144;15.152;2022-08-19T10:15:02;73834.25;;;-144.65;93.10
5146;BME280;2591;48.144;15.152;2022-08-19T10:17:30;73820.00;;;-144.65;94.09
5146;BME280;2591;48.144;15.152;2022-08-19T10:20:00;73813.88;;;-144.65;93.10
5146;BME280;2591;48.144;15.152;2022-08-19T10:22:32;73787.41;;;-144.65;92.69
5146;BME280;2591;48.144;15.152;2022-08-19T10:25:03;73742.56;;;-144.65;90.99
5146;BME280;2591;48.144;15.152;2022-08-19T10:27:31;73730.34;;;-144.65;88.96
5146;BME280;2591;48.144;15.152;2022-08-19T10:30:01;73730.34;;;-144.65;90.56
5146;BME280;2591;48.144;15.152;2022-08-19T10:32:29;73707.94;;;-144.65;92.61
5146;BME280;2591;48.144;15.152;2022-08-19T10:35:00;73671.25;;;-144.65;89.04
5146;BME280;2591;48.144;15.152;2022-08-19T10:37:33;73644.78;;;-144.65;84.96
5146;BME280;2591;48.144;15.152;2022-08-19T10:40:03;73620.34;;;-144.65;83.60
5146;BME280;2591;48.144;15.152;2022-08-19T10:42:31;73599.97;;;-144.65;82.18
5146;BME280;2591;48.144;15.152;2022-08-19T10:44:59;73573.47;;;-144.65;83.05
5146;BME280;2591;48.144;15.152;2022-08-19T10:47:30;73571.44;;;-144.65;83.46
5146;BME280;2591;48.144;15.152;2022-08-19T10:49:59;73536.81;;;-144.65;83.31
5146;BME280;2591;48.144;15.152;2022-08-19T10:52:48;73559.22;;;-144.65;80.26
5146;BME280;2591;48.144;15.152;2022-08-19T10:55:18;73581.63;;;-144.65;79.94
5146;BME280;2591;48.144;15.152;2022-08-19T10:58:10;73579.59;;;-144.65;83.55
5146;BME280;2591;48.144;15.152;2022-08-19T11:00:39;73616.25;;;-144.65;81.31
5146;BME280;2591;48.144;15.152;2022-08-19T11:03:07;73599.97;;;-144.65;80.31
5146;BME280;2591;48.144;15.152;2022-08-19T11:05:35;73595.88;;;-144.65;80.41
5146;BME280;2591;48.144;15.152;2022-08-19T11:08:08;73549.03;;;-144.65;78.69
5146;BME280;2591;48.144;15.152;2022-08-19T11:10:50;73506.25;;;-144.65;79.00
5146;BME280;2591;48.144;15.152;2022-08-19T11:13:21;73491.97;;;-144.65;74.90
5146;BME280;2591;48.144;15.152;2022-08-19T11:15:56;73514.41;;;-144.65;73.25
5146;BME280;2591;48.144;15.152;2022-08-19T11:18:29;73534.75;;;-144.65;72.89
5146;BME280;2591;48.144;15.152;2022-08-19T11:21:05;73506.25;;;-144.65;74.23
5146;BME280;2591;48.144;15.152;2022-08-19T11:23:35;73510.31;;;-144.65;71.75
5146;BME280;2591;48.144;15.152;2022-08-19T11:26:03;73547.00;;;-144.65;72.83
5146;BME280;2591;48.144;15.152;2022-08-19T11:28:31;73573.47;;;-144.65;74.35
5146;BME280;2591;48.144;15.152;2022-08-19T11:30:59;73581.63;;;-144.65;76.17
5146;BME280;2591;48.144;15.152;2022-08-19T11:33:30;73581.63;;;-144.65;75.32
5146;BME280;2591;48.144;15.152;2022-08-19T11:35:58;73595.88;;;-144.65;77.18
5146;BME280;2591;48.144;15.152;2022-08-19T11:38:27;73602.00;;;-144.65;77.38
5146;BME280;2591;48.144;15.152;2022-08-19T11:40:58;73620.34;;;-144.65;80.90
5146;BME280;2591;48.144;15.152;2022-08-19T11:43:27;73618.28;;;-144.65;81.87
5146;BME280;2591;48.144;15.152;2022-08-19T11:46:04;73604.03;;;-144.65;80.39
5146;BME280;2591;48.144;15.152;2022-08-19T11:48:33;73595.88;;;-144.65;81.08
5146;BME280;2591;48.144;15.152;2022-08-19T11:51:04;73595.88;;;-144.65;78.61
5146;BME280;2591;48.144;15.152;2022-08-19T11:53:34;73608.09;;;-144.65;78.89
5146;BME280;2591;48.144;15.152;2022-08-19T11:56:05;73632.56;;;-144.65;79.62
5146;BME280;2591;48.144;15.152;2022-08-19T11:58:33;73636.63;;;-144.65;79.88
5146;BME280;2591;48.144;15.152;2022-08-19T12:01:05;73632.56;;;-144.65;78.61
5146;BME280;2591;48.144;15.152;2022-08-19T12:03:33;73636.63;;;-144.65;79.28
5146;BME280;2591;48.144;15.152;2022-08-19T12:06:04;73628.47;;;-144.65;80.54
5146;BME280;2591;48.144;15.152;2022-08-19T12:08:32;73638.66;;;-144.65;78.55
5146;BME280;2591;48.144;15.152;2022-08-19T12:11:00;73636.63;;;-144.65;79.28
5146;BME280;2591;48.144;15.152;2022-08-19T12:13:30;73632.56;;;-144.65;77.82
5146;BME280;2591;48.144;15.152;2022-08-19T12:15:58;73624.41;;;-144.65;78.77
5146;BME280;2591;48.144;15.152;2022-08-19T12:18:26;73620.34;;;-144.65;82.02
5146;BME280;2591;48.144;15.152;2022-08-19T12:20:54;73616.25;;;-144.65;82.53
5146;BME280;2591;48.144;15.152;2022-08-19T12:23:23;73624.41;;;-144.65;80.74
5146;BME280;2591;48.144;15.152;2022-08-19T12:25:51;73620.34;;;-144.65;83.30
5146;BME280;2591;48.144;15.152;2022-08-19T12:28:20;73620.34;;;-144.65;79.56
5146;BME280;2591;48.144;15.152;2022-08-19T12:30:50;73612.19;;;-144.65;78.62
5146;BME280;2591;48.144;15.152;2022-08-19T12:33:19;73604.03;;;-144.65;79.29
5146;BME280;2591;48.144;15.152;2022-08-19T12:35:51;73602.00;;;-144.65;81.49
5146;BME280;2591;48.144;15.152;2022-08-19T12:38:19;73587.72;;;-144.65;80.42
5146;BME280;2591;48.144;15.152;2022-08-19T12:40:49;73573.47;;;-144.65;79.12
5146;BME280;2591;48.144;15.152;2022-08-19T12:43:22;73551.06;;;-144.65;79.33
5146;BME280;2591;48.144;15.152;2022-08-19T12:45:52;73557.16;;;-144.65;78.95
5146;BME280;2591;48.144;15.152;2022-08-19T12:48:21;73555.13;;;-144.65;79.79
5146;BME280;2591;48.144;15.152;2022-08-19T12:51:05;73559.22;;;-144.65;78.89
5146;BME280;2591;48.144;15.152;2022-08-19T12:53:33;73579.59;;;-144.65;79.88
5146;BME280;2591;48.144;15.152;2022-08-19T12:56:06;73593.84;;;-144.65;79.98
5146;BME280;2591;48.144;15.152;2022-08-19T12:58:38;73597.91;;;-144.65;79.44
5146;BME280;2591;48.144;15.152;2022-08-19T13:01:17;73567.34;;;-144.65;82.74
5146;BME280;2591;48.144;15.152;2022-08-19T13:03:49;73559.22;;;-144.65;80.29
5146;BME280;2591;48.144;15.152;2022-08-19T13:06:19;73569.41;;;-144.65;80.41
5146;BME280;2591;48.144;15.152;2022-08-19T13:08:47;73575.50;;;-144.65;81.40